Ewart, Iowa
Current Conditions -  °F | °C
As of 10:15 AM on Wednesday 26 Nov 2014 (Local Time) from KGGI Reporting Station
Light Snow Light Snow  
Wind Chill: 17°   Ceiling: 800
Heat Index: 28°   Visibility: 1mi
Dew Point: 27°   Wind: 16mph
Humidity: 93%   Direction: 80°E
Pressure: 29.95"   Gusts: NA
Location:  41.605°N, 92.5043°W
Report Text: KGGI 261615Z AUTO 08014KT 1SM -SN OVC008 M02/M03 A2995 RMK AO2 T10201030
Loading
Personal Weather Stations






























Interactive Weather Map New forecast layout! Learn more

10-Day Weather Forecast

Advertisements
Track Severe Weather on mobile